Time;durP1;ratioP1;P1;durP2;ratioP2;P2;SDS_P1;SDS_P2;PMS_P1;PMS_P2;Temp;Humidity;BMP_temperature;BMP_pressure;BME280_temperature;BME280_humidity;BME280_pressure;Samples;Min_cycle;Max_cycle;Signal;HPM_P1;HPM_P2
2021/09/14 00:02:17;;;;;;;2.97;1.40;;;;;;;21.52;56.99;101531.00;5055088;28;20060;-66
2021/09/14 00:04:42;;;;;;;3.28;1.40;;;;;;;21.52;56.97;101531.00;5055719;28;20063;-65
2021/09/14 00:07:08;;;;;;;2.58;1.30;;;;;;;21.51;56.81;101524.06;5054730;28;20021;-65
2021/09/14 00:09:33;;;;;;;3.30;1.48;;;;;;;21.49;56.91;101521.53;5055782;28;20372;-65
2021/09/14 00:11:59;;;;;;;3.80;1.77;;;;;;;21.50;56.91;101522.34;5055393;28;20116;-65
2021/09/14 00:14:25;;;;;;;2.88;1.50;;;;;;;21.48;56.82;101516.31;5054679;28;20068;-65
2021/09/14 00:16:50;;;;;;;3.05;1.65;;;;;;;21.48;56.80;101524.28;5055191;28;20037;-65
2021/09/14 00:19:16;;;;;;;3.70;1.52;;;;;;;21.47;56.80;101522.59;5055568;28;20024;-66
2021/09/14 00:21:42;;;;;;;3.33;1.50;;;;;;;21.47;56.91;101519.94;5054758;28;20021;-65
2021/09/14 00:24:07;;;;;;;2.83;1.30;;;;;;;21.47;56.80;101522.59;5054976;28;20151;-65
2021/09/14 00:26:32;;;;;;;3.00;1.50;;;;;;;21.46;56.63;101521.75;5055468;28;20045;-65
2021/09/14 00:28:58;;;;;;;2.53;1.48;;;;;;;21.47;56.77;101522.59;5054430;28;20258;-65
2021/09/14 00:31:25;;;;;;;3.15;1.58;;;;;;;21.46;56.67;101512.94;5055393;28;20029;-65
2021/09/14 00:33:50;;;;;;;4.07;1.83;;;;;;;21.43;56.79;101518.50;5054897;28;20048;-64
2021/09/14 00:36:15;;;;;;;3.33;1.50;;;;;;;21.45;56.72;101519.22;5053136;28;20404;-65
2021/09/14 00:38:41;;;;;;;2.90;1.52;;;;;;;21.43;56.72;101515.84;5055154;28;20087;-64
2021/09/14 00:41:06;;;;;;;2.65;1.40;;;;;;;21.45;56.61;101521.88;5054444;28;20404;-66
2021/09/14 00:43:31;;;;;;;3.88;1.50;;;;;;;21.42;56.73;101511.53;5054320;28;20071;-64
2021/09/14 00:45:56;;;;;;;2.75;1.40;;;;;;;21.42;56.54;101517.66;5054517;28;20516;-65
2021/09/14 00:48:22;;;;;;;3.35;1.67;;;;;;;21.40;56.68;101510.84;5054898;28;20047;-65
2021/09/14 00:50:47;;;;;;;2.28;1.27;;;;;;;21.42;56.83;101511.53;5053886;28;20047;-66
2021/09/14 00:53:14;;;;;;;3.70;1.50;;;;;;;21.42;56.66;101514.19;5054779;28;20760;-64
2021/09/14 00:55:40;;;;;;;2.65;1.40;;;;;;;21.41;56.53;101509.84;5054885;28;20426;-64
2021/09/14 00:58:08;;;;;;;3.33;1.58;;;;;;;21.41;56.63;101507.19;5053847;28;20529;-65
2021/09/14 01:00:33;;;;;;;2.83;1.52;;;;;;;21.38;56.50;101511.78;5054907;28;20100;-64
2021/09/14 01:02:59;;;;;;;3.40;1.65;;;;;;;21.41;56.77;101515.16;5054325;28;20108;-65
2021/09/14 01:05:25;;;;;;;2.90;1.60;;;;;;;21.40;56.46;101513.50;5053695;28;20029;-66
2021/09/14 01:07:52;;;;;;;3.90;1.70;;;;;;;21.39;56.46;101512.63;5054190;28;20036;-65
2021/09/14 01:10:17;;;;;;;3.42;1.60;;;;;;;21.38;56.53;101514.44;5053772;28;20024;-65
2021/09/14 01:12:43;;;;;;;3.30;1.67;;;;;;;21.40;56.53;101516.13;5054453;28;20464;-66
2021/09/14 01:15:09;;;;;;;2.55;1.40;;;;;;;21.37;56.54;101512.75;5053987;28;20029;-66
2021/09/14 01:17:35;;;;;;;3.60;1.42;;;;;;;21.37;56.73;101504.81;5053556;28;20499;-65
2021/09/14 01:20:00;;;;;;;2.97;1.45;;;;;;;21.37;56.53;101507.44;5053990;28;20476;-65
2021/09/14 01:22:30;;;;;;;3.05;1.55;;;;;;;21.37;56.57;101502.16;5054226;28;20021;-65
2021/09/14 01:24:56;;;;;;;2.88;1.30;;;;;;;21.34;56.59;101497.09;5053451;28;20025;-65
2021/09/14 01:27:21;;;;;;;3.22;1.52;;;;;;;21.36;56.50;101496.97;5054351;28;20379;-65
2021/09/14 01:32:31;;;;;;;4.50;1.95;;;;;;;21.35;56.31;101498.78;5053389;28;20063;-65
2021/09/14 01:35:07;;;;;;;3.67;1.70;;;;;;;21.35;56.28;101497.97;5053936;28;20060;-64
2021/09/14 01:37:35;;;;;;;3.05;1.52;;;;;;;21.33;56.43;101495.44;5054153;28;20105;-65
2021/09/14 01:40:00;;;;;;;3.10;1.58;;;;;;;21.34;56.33;101496.28;5053015;28;20021;-65
2021/09/14 01:42:26;;;;;;;4.57;1.80;;;;;;;21.33;56.26;101495.44;5053902;28;20521;-65
2021/09/14 01:44:51;;;;;;;3.25;1.60;;;;;;;21.34;56.38;101490.97;5053655;28;20029;-65
2021/09/14 01:47:16;;;;;;;4.00;1.60;;;;;;;21.32;56.24;101488.44;5052640;28;20047;-65
2021/09/14 01:49:41;;;;;;;3.60;1.50;;;;;;;21.32;56.21;101490.28;5054179;28;20025;-66
2021/09/14 01:52:07;;;;;;;3.40;1.87;;;;;;;21.31;56.32;101489.41;5053619;28;20282;-66
2021/09/14 01:54:32;;;;;;;2.85;1.42;;;;;;;21.30;56.16;101485.09;5053181;28;20361;-65
2021/09/14 01:56:58;;;;;;;3.10;1.50;;;;;;;21.30;56.33;101479.78;5053770;28;20029;-65
2021/09/14 01:59:23;;;;;;;2.70;1.40;;;;;;;21.29;56.24;101477.28;5053501;28;20285;-65
2021/09/14 02:02:12;;;;;;;3.50;1.83;;;;;;;21.30;56.31;101479.78;5052549;28;20164;-65
2021/09/14 02:04:50;;;;;;;4.60;1.88;;;;;;;21.30;56.19;101481.59;5053601;28;20028;-65
2021/09/14 02:07:43;;;;;;;3.67;1.60;;;;;;;21.29;56.18;101474.63;5052685;28;20028;-65
2021/09/14 02:24:09;;;;;;;3.92;1.88;;;;;;;21.26;56.01;101474.88;5053070;28;20032;-65
2021/09/14 02:43:10;;;;;;;4.10;2.15;;;;;;;21.22;55.89;101452.25;5054439;28;20033;-64
2021/09/14 02:56:42;;;;;;;4.18;1.95;;;;;;;21.21;56.06;101446.09;5051707;28;20032;-65
2021/09/14 02:59:07;;;;;;;3.47;1.63;;;;;;;21.20;55.95;101442.63;5051311;28;20469;-66
2021/09/14 03:01:32;;;;;;;4.30;2.10;;;;;;;21.20;55.95;101444.41;5051962;28;20027;-65
2021/09/14 03:03:58;;;;;;;3.05;1.67;;;;;;;21.16;55.97;101441.19;5051137;28;20284;-65
2021/09/14 03:06:24;;;;;;;3.53;1.83;;;;;;;21.19;55.71;101440.94;5051703;28;20098;-65
2021/09/14 03:08:50;;;;;;;3.30;1.70;;;;;;;21.19;55.93;101440.09;5051843;28;20510;-65
2021/09/14 03:11:18;;;;;;;2.80;1.67;;;;;;;21.19;55.89;101437.47;5051765;28;20036;-65
2021/09/14 03:13:43;;;;;;;3.70;1.65;;;;;;;21.19;55.88;101433.00;5052243;28;20118;-64
2021/09/14 03:16:11;;;;;;;3.47;1.80;;;;;;;21.19;55.95;101432.16;5052004;28;20476;-65
2021/09/14 03:18:38;;;;;;;3.30;1.80;;;;;;;21.18;55.88;101423.34;5051614;28;20035;-65
2021/09/14 03:21:04;;;;;;;3.85;1.83;;;;;;;21.18;55.88;101422.50;5051848;28;20505;-65
2021/09/14 03:23:31;;;;;;;4.20;1.67;;;;;;;21.17;55.76;101421.69;5052234;28;20392;-65
2021/09/14 03:25:57;;;;;;;3.17;1.70;;;;;;;21.17;55.86;101410.22;5051294;28;20096;-65
2021/09/14 03:28:22;;;;;;;3.40;1.73;;;;;;;21.15;55.88;101406.88;5052157;28;20051;-65
2021/09/14 03:30:48;;;;;;;3.30;1.80;;;;;;;21.17;55.90;101404.91;5052011;28;20105;-65
2021/09/14 03:33:14;;;;;;;3.90;1.80;;;;;;;21.15;55.56;101398.91;5051476;28;20029;-65
2021/09/14 03:35:39;;;;;;;4.38;2.00;;;;;;;21.16;55.70;101396.16;5052071;28;20107;-65
2021/09/14 03:38:04;;;;;;;4.43;2.28;;;;;;;21.16;55.74;101392.66;5051028;28;20083;-65
2021/09/14 03:40:30;;;;;;;3.65;1.83;;;;;;;21.15;55.55;101398.91;5052290;28;20057;-65
2021/09/14 03:42:55;;;;;;;3.60;2.00;;;;;;;21.14;55.72;101408.69;5051906;28;20043;-65
2021/09/14 03:45:21;;;;;;;3.50;1.95;;;;;;;21.15;55.76;101410.34;5051542;28;20108;-65
2021/09/14 03:47:46;;;;;;;4.05;2.10;;;;;;;21.14;55.70;101408.69;5051951;28;20065;-65
2021/09/14 03:50:11;;;;;;;3.88;1.90;;;;;;;21.15;55.60;101409.53;5051725;28;20111;-65
2021/09/14 03:52:37;;;;;;;3.58;1.85;;;;;;;21.14;55.65;101407.84;5051480;28;20029;-65
2021/09/14 03:55:09;;;;;;;3.30;1.80;;;;;;;21.14;55.71;101407.84;5051895;28;20465;-65
2021/09/14 03:57:34;;;;;;;3.83;2.10;;;;;;;21.13;55.61;101414.94;5052248;28;20266;-66
2021/09/14 04:00:00;;;;;;;4.57;1.83;;;;;;;21.12;55.65;101405.31;5051219;28;20017;-65
2021/09/14 04:02:34;;;;;;;3.72;2.03;;;;;;;21.13;55.56;101414.13;5052159;28;20388;-65
2021/09/14 04:10:14;;;;;;;3.88;1.98;;;;;;;21.10;55.51;101403.78;5041738;28;20041;-66
2021/09/14 04:12:39;;;;;;;4.35;2.05;;;;;;;21.11;55.47;101401.00;5055692;28;20028;-64
2021/09/14 04:15:06;;;;;;;3.50;1.80;;;;;;;21.11;55.23;101400.13;5054754;28;20033;-65
2021/09/14 04:17:32;;;;;;;4.00;2.10;;;;;;;21.07;55.49;101394.28;5055845;28;20032;-65
2021/09/14 04:20:00;;;;;;;4.05;1.92;;;;;;;21.11;55.53;101398.34;5055448;28;20021;-65
2021/09/14 04:22:26;;;;;;;4.15;2.20;;;;;;;21.10;55.33;101394.00;5054830;28;20051;-65
2021/09/14 04:24:51;;;;;;;4.15;2.03;;;;;;;21.09;55.35;101394.97;5055188;28;20071;-65
2021/09/14 04:27:17;;;;;;;3.15;1.77;;;;;;;21.09;55.62;101399.44;5054639;28;20036;-66
2021/09/14 04:29:42;;;;;;;4.60;2.28;;;;;;;21.10;55.14;101401.13;5055461;28;20033;-65
2021/09/14 04:32:07;;;;;;;3.65;2.03;;;;;;;21.09;55.41;101400.28;5054624;28;20392;-67
2021/09/14 04:34:33;;;;;;;4.63;2.20;;;;;;;21.08;55.35;101398.63;5054629;28;20396;-66
2021/09/14 04:36:58;;;;;;;4.70;1.98;;;;;;;21.08;55.29;101398.63;5054947;28;20507;-66
2021/09/14 04:39:23;;;;;;;4.13;2.10;;;;;;;21.07;55.15;101391.63;5055398;28;20104;-65
2021/09/14 04:41:48;;;;;;;3.95;2.10;;;;;;;21.07;55.14;101396.91;5054089;28;20100;-64
2021/09/14 04:44:14;;;;;;;3.35;1.95;;;;;;;21.08;55.25;101397.75;5055405;28;20028;-65
2021/09/14 04:46:39;;;;;;;4.38;2.30;;;;;;;21.06;55.30;101392.59;5055016;28;20041;-64
2021/09/14 04:49:08;;;;;;;3.97;1.95;;;;;;;21.06;55.26;101389.97;5054126;28;20029;-65
2021/09/14 04:51:33;;;;;;;3.90;2.20;;;;;;;21.07;55.34;101404.88;5055136;28;20112;-66
2021/09/14 04:53:59;;;;;;;4.50;2.10;;;;;;;21.06;55.27;101399.69;5054505;28;20120;-64
2021/09/14 04:56:24;;;;;;;4.53;2.53;;;;;;;21.05;55.27;101398.88;5054052;28;20036;-64
2021/09/14 04:58:50;;;;;;;4.00;2.25;;;;;;;21.05;55.20;101400.69;5054154;28;20813;-65
2021/09/14 05:01:19;;;;;;;4.65;2.60;;;;;;;21.05;55.21;101404.16;5054746;28;20036;-65
2021/09/14 05:03:46;;;;;;;3.88;2.00;;;;;;;21.04;55.14;101399.84;5053844;28;20027;-65
2021/09/14 05:06:12;;;;;;;4.97;2.30;;;;;;;21.04;54.95;101397.19;5054509;28;20021;-65
2021/09/14 05:08:40;;;;;;;4.45;2.03;;;;;;;21.03;55.02;101398.16;5054532;28;20384;-65
2021/09/14 05:11:05;;;;;;;4.18;2.30;;;;;;;21.04;55.14;101393.69;5053477;28;20100;-66
2021/09/14 05:13:31;;;;;;;3.90;2.10;;;;;;;21.02;55.08;101385.88;5054338;28;20048;-65
2021/09/14 05:15:57;;;;;;;4.10;2.35;;;;;;;21.02;55.15;101399.97;5054214;28;20475;-64
2021/09/14 05:18:23;;;;;;;4.15;2.20;;;;;;;21.04;55.35;101404.31;5053658;28;20025;-65
2021/09/14 05:20:50;;;;;;;4.43;2.00;;;;;;;21.02;54.90;101401.78;5054125;28;20029;-65
2021/09/14 05:23:19;;;;;;;4.78;2.38;;;;;;;21.01;55.30;101400.09;5053432;28;20033;-66
2021/09/14 05:25:45;;;;;;;5.90;2.20;;;;;;;21.02;55.02;101396.47;5053290;28;20083;-65
2021/09/14 05:28:12;;;;;;;5.20;2.38;;;;;;;21.01;55.19;101394.78;5053621;28;20562;-66
2021/09/14 05:30:38;;;;;;;4.35;2.50;;;;;;;21.01;55.10;101392.13;5053454;28;20104;-65
2021/09/14 05:33:03;;;;;;;3.92;2.13;;;;;;;21.01;55.10;101389.50;5053748;28;20137;-65
2021/09/14 05:35:40;;;;;;;4.25;2.30;;;;;;;21.00;55.03;101386.00;5054115;28;20032;-65
2021/09/14 05:38:05;;;;;;;4.55;2.47;;;;;;;21.01;55.09;101389.50;5052927;28;20507;-65
2021/09/14 05:40:31;;;;;;;4.68;2.38;;;;;;;21.00;54.99;101391.31;5053818;28;20025;-65
2021/09/14 05:42:56;;;;;;;5.20;2.40;;;;;;;21.00;55.17;101388.66;5053592;28;20028;-65
2021/09/14 05:45:22;;;;;;;4.60;2.20;;;;;;;21.01;55.29;101382.41;5053103;28;20025;-65
2021/09/14 05:47:47;;;;;;;4.82;2.28;;;;;;;21.00;55.13;101379.88;5053588;28;20033;-65
2021/09/14 05:50:12;;;;;;;4.80;2.10;;;;;;;20.99;55.37;101373.72;5053818;28;20027;-65
2021/09/14 05:52:38;;;;;;;3.90;2.20;;;;;;;20.98;55.28;101372.06;5053009;28;20112;-62
2021/09/14 05:55:04;;;;;;;4.60;2.20;;;;;;;20.97;55.22;101367.72;5053057;28;20032;-62
2021/09/14 05:57:31;;;;;;;5.07;2.20;;;;;;;20.96;55.38;101367.84;5053438;28;20457;-61
2021/09/14 05:59:57;;;;;;;4.85;2.13;;;;;;;20.95;55.40;101364.38;5052056;28;20380;-64
2021/09/14 06:02:22;;;;;;;4.53;2.20;;;;;;;20.96;55.58;101366.03;5053316;28;20036;-65
2021/09/14 06:04:47;;;;;;;5.38;2.30;;;;;;;20.97;55.52;101364.25;5053172;28;20071;-64
2021/09/14 06:07:12;;;;;;;4.87;2.33;;;;;;;20.98;55.79;101358.81;5052486;28;20528;-65
2021/09/14 06:09:38;;;;;;;4.00;1.95;;;;;;;20.99;55.79;101363.13;5053023;28;20278;-65
2021/09/14 06:12:04;;;;;;;5.32;2.40;;;;;;;20.98;55.71;101361.47;5052964;28;20025;-66
2021/09/14 06:14:29;;;;;;;5.05;2.17;;;;;;;21.00;55.89;101367.47;5052180;28;20033;-64
2021/09/14 06:16:54;;;;;;;4.43;2.22;;;;;;;21.01;55.91;101378.88;5052718;28;20021;-65
2021/09/14 06:19:21;;;;;;;4.73;2.40;;;;;;;21.02;55.84;101386.72;5052997;28;20419;-64
2021/09/14 06:21:46;;;;;;;3.88;2.00;;;;;;;21.02;55.98;101370.81;5052349;28;20274;-64
2021/09/14 06:24:11;;;;;;;4.05;2.10;;;;;;;21.02;56.00;101368.16;5052644;28;20338;-66
2021/09/14 06:26:37;;;;;;;5.83;2.40;;;;;;;21.04;55.88;101372.50;5052294;28;20043;-66
2021/09/14 06:29:02;;;;;;;4.33;2.23;;;;;;;21.04;56.11;101386.56;5051759;28;20278;-65
2021/09/14 06:31:27;;;;;;;4.82;2.58;;;;;;;21.06;56.03;101389.97;5052883;28;20274;-63
2021/09/14 06:33:53;;;;;;;4.93;2.33;;;;;;;21.06;56.25;101387.31;5051646;28;20112;-64
2021/09/14 06:36:18;;;;;;;5.50;2.35;;;;;;;21.07;56.17;101390.78;5052732;28;20029;-63
2021/09/14 06:38:43;;;;;;;4.05;1.98;;;;;;;21.07;56.22;101386.31;5052541;28;20472;-63
2021/09/14 06:41:09;;;;;;;5.97;2.30;;;;;;;21.08;56.21;101385.38;5051695;28;20501;-64
2021/09/14 06:43:34;;;;;;;5.00;2.55;;;;;;;21.06;56.39;101382.00;5052792;28;20037;-63
2021/09/14 06:45:59;;;;;;;4.25;2.20;;;;;;;21.09;56.44;101388.84;5052360;28;20044;-65
2021/09/14 06:48:25;;;;;;;5.25;2.38;;;;;;;21.10;56.43;101388.72;5052017;28;20049;-64
2021/09/14 06:50:50;;;;;;;4.53;2.13;;;;;;;21.10;56.43;101382.59;5052265;28;20028;-64
2021/09/14 06:53:15;;;;;;;5.07;2.50;;;;;;;21.10;56.22;101377.28;5054999;28;20319;-62
2021/09/14 06:55:41;;;;;;;5.65;2.50;;;;;;;21.11;56.54;101374.50;5052040;28;20456;-64
2021/09/14 06:58:06;;;;;;;5.32;2.35;;;;;;;21.14;56.17;101373.38;5052591;28;20273;-63
2021/09/14 07:00:31;;;;;;;4.70;2.63;;;;;;;21.15;56.58;101364.47;5054452;28;20029;-62
2021/09/14 07:02:57;;;;;;;5.93;2.85;;;;;;;21.15;56.48;101364.47;5052977;28;20276;-63
2021/09/14 07:05:24;;;;;;;5.10;2.57;;;;;;;21.16;56.38;101369.63;5052865;28;20021;-63
2021/09/14 07:07:49;;;;;;;5.35;2.35;;;;;;;21.14;56.30;101358.34;5052306;28;20278;-63
2021/09/14 07:10:14;;;;;;;6.67;2.43;;;;;;;21.17;56.29;101368.69;5052000;28;20453;-63
2021/09/14 07:12:40;;;;;;;5.33;2.73;;;;;;;21.14;56.24;101366.28;5052882;28;20270;-64
2021/09/14 07:15:05;;;;;;;5.93;2.80;;;;;;;21.18;56.28;101369.50;5052141;28;20286;-65
2021/09/14 07:17:31;;;;;;;4.82;3.05;;;;;;;21.19;56.24;101366.72;5051629;28;20023;-63
2021/09/14 07:20:05;;;;;;;5.45;2.60;;;;;;;21.22;56.26;101360.34;5052085;28;20039;-63
2021/09/14 07:22:36;;;;;;;5.28;3.03;;;;;;;21.20;55.91;101355.16;5052314;28;20029;-63
2021/09/14 07:25:05;;;;;;;5.53;2.47;;;;;;;21.24;56.11;101368.13;5051568;28;20041;-65
2021/09/14 07:27:30;;;;;;;5.78;3.17;;;;;;;21.26;56.14;101372.31;5052503;28;20029;-66
2021/09/14 07:29:55;;;;;;;4.35;2.63;;;;;;;21.28;56.02;101367.72;5052501;28;20074;-65
2021/09/14 07:32:21;;;;;;;5.32;3.00;;;;;;;21.30;55.97;101357.84;5051707;28;20384;-66
2021/09/14 07:34:46;;;;;;;4.88;2.80;;;;;;;21.32;55.92;101360.38;5052555;28;20033;-66
2021/09/14 07:37:11;;;;;;;5.43;2.97;;;;;;;21.33;55.79;101359.38;5051739;28;20057;-66
2021/09/14 07:39:37;;;;;;;5.25;2.80;;;;;;;21.32;55.79;101365.66;5052792;28;20767;-66
2021/09/14 07:42:02;;;;;;;6.65;2.60;;;;;;;21.34;55.70;101366.38;5052022;28;20128;-61
2021/09/14 07:44:27;;;;;;;5.10;2.70;;;;;;;21.34;55.78;101371.66;5051342;28;20033;-64
2021/09/14 07:46:53;;;;;;;5.43;2.72;;;;;;;21.34;55.74;101375.16;5055547;28;20159;-64
2021/09/14 07:49:19;;;;;;;4.85;2.63;;;;;;;21.33;55.82;101365.53;5055971;28;20021;-64
2021/09/14 07:51:44;;;;;;;5.65;2.80;;;;;;;21.35;55.46;101368.88;5055334;28;20055;-64
2021/09/14 07:54:10;;;;;;;5.10;2.72;;;;;;;21.35;55.73;101365.41;5055751;28;20396;-64
2021/09/14 07:56:35;;;;;;;5.18;2.75;;;;;;;21.33;55.95;101352.28;5055790;28;20064;-64
2021/09/14 07:59:02;;;;;;;5.33;2.70;;;;;;;21.35;55.71;101349.50;5054831;28;20036;-65
2021/09/14 08:01:27;;;;;;;5.28;2.80;;;;;;;21.35;55.88;101352.16;5055866;28;20351;-65
2021/09/14 08:03:53;;;;;;;5.88;2.72;;;;;;;21.35;55.62;101352.16;5055481;28;20476;-65
2021/09/14 08:06:18;;;;;;;4.78;2.55;;;;;;;21.33;55.63;101359.38;5054793;28;20028;-65
2021/09/14 08:08:43;;;;;;;4.95;2.58;;;;;;;21.35;55.77;101362.75;5055891;28;20056;-65
2021/09/14 08:11:08;;;;;;;5.73;2.57;;;;;;;21.32;55.88;101363.03;5055427;28;20060;-64
2021/09/14 08:13:37;;;;;;;6.43;2.60;;;;;;;21.32;55.86;101363.84;5054932;28;20618;-65
2021/09/14 08:16:03;;;;;;;4.90;2.60;;;;;;;21.30;56.04;101357.84;5055123;28;20025;-64
2021/09/14 08:18:29;;;;;;;5.65;3.00;;;;;;;21.28;56.19;101367.72;5055525;28;20025;-64
2021/09/14 08:20:54;;;;;;;6.65;2.60;;;;;;;21.30;55.98;101362.28;5054378;28;20116;-65
2021/09/14 08:23:20;;;;;;;4.57;2.70;;;;;;;21.28;56.22;101375.69;5055268;28;20045;-64
2021/09/14 08:25:45;;;;;;;4.55;2.42;;;;;;;21.28;55.86;101375.69;5055428;28;20518;-63
2021/09/14 08:28:10;;;;;;;5.22;2.88;;;;;;;21.26;56.20;101367.03;5054311;28;20020;-65
2021/09/14 08:30:35;;;;;;;5.07;2.67;;;;;;;21.26;56.03;101369.69;5055228;28;20480;-65
2021/09/14 08:33:01;;;;;;;4.43;2.50;;;;;;;21.26;56.15;101372.31;5055085;28;20116;-65
2021/09/14 08:35:26;;;;;;;5.83;2.60;;;;;;;21.26;56.47;101374.97;5054192;28;20384;-64
2021/09/14 08:37:51;;;;;;;5.82;2.72;;;;;;;21.27;56.31;101370.50;5055029;28;20276;-64
2021/09/14 08:40:17;;;;;;;4.93;2.60;;;;;;;21.26;56.20;101371.50;5055197;28;20025;-64
2021/09/14 08:42:42;;;;;;;5.28;2.80;;;;;;;21.26;56.11;101371.50;5054310;28;20022;-64
2021/09/14 08:45:09;;;;;;;4.82;2.78;;;;;;;21.24;56.33;101363.69;5054617;28;20106;-64
2021/09/14 08:47:39;;;;;;;5.43;2.80;;;;;;;21.23;56.29;101364.63;5053823;28;20053;-64
2021/09/14 08:50:07;;;;;;;6.07;2.92;;;;;;;21.22;56.52;101362.97;5054573;28;20070;-64
2021/09/14 08:52:33;;;;;;;5.75;2.63;;;;;;;21.24;56.24;101374.28;5054815;28;20470;-64
2021/09/14 08:54:58;;;;;;;4.60;2.47;;;;;;;21.24;56.33;101374.28;5053680;28;20159;-64
2021/09/14 08:57:26;;;;;;;4.43;2.70;;;;;;;21.22;56.45;101373.59;5053636;28;20044;-63
2021/09/14 08:59:55;;;;;;;5.35;2.63;;;;;;;21.24;56.39;101370.78;5054416;28;20025;-64
2021/09/14 09:02:21;;;;;;;5.68;2.45;;;;;;;21.24;56.36;101368.97;5053599;28;20028;-64
2021/09/14 09:05:00;;;;;;;4.28;2.25;;;;;;;21.24;56.63;101366.31;5054809;28;20025;-64
2021/09/14 09:07:36;;;;;;;5.30;2.78;;;;;;;21.23;56.42;101367.28;5054419;28;20117;-64
2021/09/14 09:10:11;;;;;;;5.05;2.90;;;;;;;21.20;56.41;101367.56;5053340;28;20032;-65
2021/09/14 09:12:45;;;;;;;4.90;2.90;;;;;;;21.22;56.53;101368.28;5054476;28;20025;-65
2021/09/14 09:15:27;;;;;;;;;;;;;;;21.20;56.49;101363.13;5054772;28;20025;-65
2021/09/14 09:18:12;;;;;;;4.82;2.80;;;;;;;21.21;56.61;101348.03;5053384;28;19999;-64
2021/09/14 09:20:40;;;;;;;4.43;2.80;;;;;;;21.22;56.44;101346.22;5054402;28;20029;-64
2021/09/14 09:23:11;;;;;;;4.95;2.53;;;;;;;21.22;56.56;101344.44;5053052;28;20477;-65
2021/09/14 09:25:39;;;;;;;5.30;2.60;;;;;;;21.22;56.72;101343.56;5054517;28;20029;-64
2021/09/14 09:28:22;;;;;;;5.03;2.50;;;;;;;21.23;56.66;101335.47;5053828;28;20498;-64
2021/09/14 09:30:57;;;;;;;6.53;2.80;;;;;;;21.23;56.60;101335.47;5053194;28;20056;-64
2021/09/14 09:33:23;;;;;;;;;;;;;;;21.23;56.83;101329.34;5054938;28;20036;-65
2021/09/14 09:35:48;;;;;;;6.18;2.75;;;;;;;21.22;56.72;101338.25;5053479;28;19919;-65
2021/09/14 09:38:16;;;;;;;5.00;2.60;;;;;;;21.23;56.63;101340.78;5053032;28;20017;-65
2021/09/14 09:40:45;;;;;;;4.47;2.63;;;;;;;21.24;56.45;101344.25;5054039;28;20021;-64
2021/09/14 09:43:12;;;;;;;4.35;2.80;;;;;;;21.23;56.70;101342.59;5053678;28;20022;-65
2021/09/14 09:45:47;;;;;;;5.18;2.97;;;;;;;21.23;56.80;101343.44;5053146;28;20464;-65
2021/09/14 09:48:14;;;;;;;4.85;2.88;;;;;;;21.24;56.72;101346.91;5053556;28;20756;-65
2021/09/14 09:50:41;;;;;;;4.53;2.70;;;;;;;21.25;56.80;101344.13;5053565;28;20058;-65
2021/09/14 09:53:08;;;;;;;5.18;2.90;;;;;;;21.25;56.72;101349.44;5053339;28;20053;-64
2021/09/14 09:55:34;;;;;;;4.43;2.70;;;;;;;21.26;56.63;101342.34;5053948;28;20025;-67
2021/09/14 09:58:03;;;;;;;7.38;2.90;;;;;;;21.32;56.90;101353.25;5052418;28;20385;-68
2021/09/14 10:00:30;;;;;;;4.82;2.65;;;;;;;21.33;56.78;101344.31;5053602;28;20033;-66
2021/09/14 10:03:02;;;;;;;5.78;2.72;;;;;;;21.34;56.68;101343.34;5053021;28;20036;-65
2021/09/14 10:05:34;;;;;;;5.57;3.03;;;;;;;21.36;56.70;101352.03;5055749;28;20116;-65
2021/09/14 10:08:22;;;;;;;5.05;3.00;;;;;;;21.37;57.03;101345.72;5053706;28;20021;-66
2021/09/14 10:10:54;;;;;;;6.93;3.10;;;;;;;21.36;56.84;101333.47;5053758;28;20021;-68
2021/09/14 10:13:29;;;;;;;5.07;3.10;;;;;;;21.40;56.94;101333.19;5053287;28;20044;-65
2021/09/14 10:15:54;;;;;;;5.38;3.30;;;;;;;21.39;57.01;101327.03;5053335;28;20037;-64
2021/09/14 10:18:26;;;;;;;4.40;2.88;;;;;;;21.40;56.88;101328.72;5053485;28;20028;-63
2021/09/14 10:20:52;;;;;;;4.93;3.03;;;;;;;21.38;56.66;101322.72;5052357;28;20116;-65
2021/09/14 10:23:28;;;;;;;5.15;2.85;;;;;;;21.40;56.72;101327.88;5053240;28;20075;-64
2021/09/14 10:26:12;;;;;;;6.65;2.90;;;;;;;21.41;56.95;101313.63;5052068;28;20061;-64
2021/09/14 10:28:49;;;;;;;5.07;3.15;;;;;;;21.37;56.86;101311.25;5053335;28;20068;-64
2021/09/14 10:31:32;;;;;;;5.45;2.70;;;;;;;21.38;56.71;101310.28;5053271;28;20075;-64
2021/09/14 10:34:01;;;;;;;6.57;2.90;;;;;;;21.40;56.92;101312.81;5052044;28;20166;-65
2021/09/14 10:36:27;;;;;;;5.78;2.72;;;;;;;21.40;56.83;101319.94;5052988;28;20565;-65
2021/09/14 10:38:55;;;;;;;4.93;2.92;;;;;;;21.41;56.64;101308.34;5052847;28;20435;-64
2021/09/14 10:41:21;;;;;;;5.97;2.83;;;;;;;21.40;56.59;101310.16;5052339;28;20021;-65
2021/09/14 10:43:54;;;;;;;4.78;2.72;;;;;;;21.41;56.85;101303.03;5053312;28;20028;-64
2021/09/14 10:46:23;;;;;;;6.50;3.22;;;;;;;21.40;56.91;101304.84;5052932;28;20087;-64
2021/09/14 10:48:52;;;;;;;5.78;2.95;;;;;;;21.42;56.77;101310.03;5051663;28;20102;-64
2021/09/14 10:51:18;;;;;;;4.57;2.95;;;;;;;21.43;56.66;101293.97;5053053;28;20109;-63
2021/09/14 10:53:54;;;;;;;6.18;2.90;;;;;;;21.43;56.76;101293.13;5052860;28;20020;-63
2021/09/14 10:56:19;;;;;;;6.63;2.97;;;;;;;21.43;56.84;101288.69;5052016;28;20025;-62
2021/09/14 10:58:50;;;;;;;5.90;3.00;;;;;;;21.43;56.58;101290.47;5052787;28;20021;-63
2021/09/14 11:01:22;;;;;;;4.22;2.75;;;;;;;21.42;56.65;101289.63;5051745;28;20048;-63
2021/09/14 11:04:07;;;;;;;5.00;3.30;;;;;;;21.44;56.76;101286.84;5052436;28;20052;-62
2021/09/14 11:06:33;;;;;;;5.05;2.80;;;;;;;21.43;56.58;101278.06;5052399;28;20473;-62
2021/09/14 11:08:59;;;;;;;5.47;3.35;;;;;;;21.43;56.80;101278.06;5051385;28;20029;-62
2021/09/14 11:11:34;;;;;;;4.30;2.88;;;;;;;21.44;56.75;101279.72;5052345;28;20028;-63
2021/09/14 11:13:59;;;;;;;6.13;2.85;;;;;;;21.44;56.82;101277.09;5052080;28;20027;-62
2021/09/14 11:16:25;;;;;;;5.47;3.15;;;;;;;21.45;56.72;101265.50;5051752;28;20119;-64
2021/09/14 11:18:57;;;;;;;5.40;2.80;;;;;;;21.45;56.78;101268.16;5052196;28;20025;-62
2021/09/14 11:21:22;;;;;;;4.97;2.90;;;;;;;21.46;56.64;101264.53;5052015;28;20116;-62
2021/09/14 11:23:49;;;;;;;5.60;3.00;;;;;;;21.47;56.88;101257.41;5051382;28;20108;-63
2021/09/14 11:26:16;;;;;;;5.72;2.85;;;;;;;21.47;56.71;101263.56;5052149;28;20112;-63
2021/09/14 11:28:59;;;;;;;5.10;2.83;;;;;;;21.47;56.82;101257.41;5052189;28;20104;-64
2021/09/14 11:31:27;;;;;;;5.03;2.70;;;;;;;21.47;56.94;101260.91;5051339;28;20119;-63
2021/09/14 11:33:52;;;;;;;4.70;2.83;;;;;;;21.47;56.77;101249.47;5051821;28;20025;-63
2021/09/14 11:36:17;;;;;;;5.68;2.85;;;;;;;21.48;56.83;101254.66;5051094;28;20036;-65
2021/09/14 11:38:43;;;;;;;5.25;2.85;;;;;;;21.50;56.88;101260.66;5051888;28;20040;-63
2021/09/14 11:41:11;;;;;;;6.05;3.25;;;;;;;21.50;56.88;101251.88;5052103;28;20021;-62
2021/09/14 11:43:41;;;;;;;5.03;3.08;;;;;;;21.47;56.90;101250.28;5051399;28;20021;-63
2021/09/14 11:46:17;;;;;;;6.45;3.45;;;;;;;21.51;56.97;101254.41;5051864;28;20024;-63
2021/09/14 11:49:00;;;;;;;4.93;2.97;;;;;;;21.52;56.85;101249.91;5051731;28;20503;-63
2021/09/14 11:51:28;;;;;;;5.22;2.88;;;;;;;21.52;56.72;101242.81;5051673;28;20040;-63
2021/09/14 11:53:53;;;;;;;5.32;2.80;;;;;;;21.52;56.83;101244.63;5052228;28;20052;-63
2021/09/14 11:56:23;;;;;;;5.70;3.00;;;;;;;21.52;56.79;101242.81;5052642;28;20487;-64
2021/09/14 11:58:49;;;;;;;4.20;2.80;;;;;;;21.52;56.66;101241.97;5051971;28;20036;-63
2021/09/14 12:01:17;;;;;;;4.35;2.63;;;;;;;21.50;56.53;101236.78;5052132;28;20025;-62
2021/09/14 12:04:02;;;;;;;6.07;2.70;;;;;;;21.51;56.88;101237.66;5051719;28;20095;-62
2021/09/14 12:06:30;;;;;;;5.90;2.88;;;;;;;21.49;57.01;101235.13;5050452;28;20364;-62
2021/09/14 12:08:57;;;;;;;4.82;3.00;;;;;;;21.52;56.65;101242.81;5051515;28;20111;-63
2021/09/14 12:11:28;;;;;;;4.95;2.78;;;;;;;21.53;56.92;101241.00;5051025;28;20025;-63
2021/09/14 12:14:01;;;;;;;6.22;3.35;;;;;;;21.52;56.97;101242.81;5051460;28;20433;-64
2021/09/14 12:16:32;;;;;;;4.40;2.70;;;;;;;21.51;56.84;101235.81;5051798;28;20036;-63
2021/09/14 12:18:58;;;;;;;5.32;2.95;;;;;;;21.52;56.71;101239.31;5050628;28;20427;-63